sensor_id;sensor_type;location;lat;lon;timestamp;P1;durP1;ratioP1;P2;durP2;ratioP2
61477;SDS011;47345;52.334;10.392;2023-03-24T00:02:33;2.30;;;2.00;;
61477;SDS011;47345;52.334;10.392;2023-03-24T00:05:05;2.50;;;2.10;;
61477;SDS011;47345;52.334;10.392;2023-03-24T00:07:37;3.40;;;2.00;;
61477;SDS011;47345;52.334;10.392;2023-03-24T00:10:09;2.60;;;1.80;;
61477;SDS011;47345;52.334;10.392;2023-03-24T00:12:41;2.50;;;2.10;;
61477;SDS011;47345;52.334;10.392;2023-03-24T00:15:14;4.60;;;1.90;;
61477;SDS011;47345;52.334;10.392;2023-03-24T00:17:47;2.40;;;2.00;;
61477;SDS011;47345;52.334;10.392;2023-03-24T00:20:19;6.80;;;2.30;;
61477;SDS011;47345;52.334;10.392;2023-03-24T00:22:54;1.90;;;1.80;;
61477;SDS011;47345;52.334;10.392;2023-03-24T00:25:27;2.80;;;2.00;;
61477;SDS011;47345;52.334;10.392;2023-03-24T00:28:03;2.50;;;1.80;;
61477;SDS011;47345;52.334;10.392;2023-03-24T00:30:34;1.80;;;1.70;;
61477;SDS011;47345;52.334;10.392;2023-03-24T00:33:05;3.70;;;2.10;;
61477;SDS011;47345;52.334;10.392;2023-03-24T00:35:36;2.30;;;2.10;;
61477;SDS011;47345;52.334;10.392;2023-03-24T00:38:07;2.20;;;1.90;;
61477;SDS011;47345;52.334;10.392;2023-03-24T00:40:43;2.10;;;1.90;;
61477;SDS011;47345;52.334;10.392;2023-03-24T00:43:15;3.00;;;1.70;;
61477;SDS011;47345;52.334;10.392;2023-03-24T00:45:46;2.50;;;2.00;;
61477;SDS011;47345;52.334;10.392;2023-03-24T00:48:18;2.60;;;2.00;;
61477;SDS011;47345;52.334;10.392;2023-03-24T00:50:50;1.60;;;1.50;;
61477;SDS011;47345;52.334;10.392;2023-03-24T00:53:22;2.60;;;1.90;;
61477;SDS011;47345;52.334;10.392;2023-03-24T00:55:56;3.20;;;2.20;;
61477;SDS011;47345;52.334;10.392;2023-03-24T00:58:27;2.00;;;1.90;;
61477;SDS011;47345;52.334;10.392;2023-03-24T01:01:01;1.90;;;1.80;;
61477;SDS011;47345;52.334;10.392;2023-03-24T01:03:33;2.70;;;1.90;;
61477;SDS011;47345;52.334;10.392;2023-03-24T01:06:15;6.20;;;2.20;;
61477;SDS011;47345;52.334;10.392;2023-03-24T01:08:48;2.10;;;1.90;;
61477;SDS011;47345;52.334;10.392;2023-03-24T01:11:21;2.20;;;1.80;;
61477;SDS011;47345;52.334;10.392;2023-03-24T01:13:53;3.30;;;2.10;;
61477;SDS011;47345;52.334;10.392;2023-03-24T01:16:25;5.70;;;2.00;;
61477;SDS011;47345;52.334;10.392;2023-03-24T01:18:56;2.70;;;2.20;;
61477;SDS011;47345;52.334;10.392;2023-03-24T01:21:27;3.00;;;2.40;;
61477;SDS011;47345;52.334;10.392;2023-03-24T01:23:58;3.70;;;2.00;;
61477;SDS011;47345;52.334;10.392;2023-03-24T01:26:30;2.40;;;2.10;;
61477;SDS011;47345;52.334;10.392;2023-03-24T01:29:01;2.70;;;2.20;;
61477;SDS011;47345;52.334;10.392;2023-03-24T01:31:32;2.40;;;2.10;;
61477;SDS011;47345;52.334;10.392;2023-03-24T01:34:03;2.20;;;2.00;;
61477;SDS011;47345;52.334;10.392;2023-03-24T01:36:34;2.40;;;2.10;;
61477;SDS011;47345;52.334;10.392;2023-03-24T01:39:05;2.70;;;2.40;;
61477;SDS011;47345;52.334;10.392;2023-03-24T01:41:37;2.50;;;2.20;;
61477;SDS011;47345;52.334;10.392;2023-03-24T01:44:29;3.30;;;2.30;;
61477;SDS011;47345;52.334;10.392;2023-03-24T01:47:02;3.00;;;2.30;;
61477;SDS011;47345;52.334;10.392;2023-03-24T01:49:36;3.20;;;2.60;;
61477;SDS011;47345;52.334;10.392;2023-03-24T01:52:12;6.20;;;3.00;;
61477;SDS011;47345;52.334;10.392;2023-03-24T01:54:46;2.70;;;2.50;;
61477;SDS011;47345;52.334;10.392;2023-03-24T01:57:21;3.60;;;2.60;;
61477;SDS011;47345;52.334;10.392;2023-03-24T01:59:56;3.50;;;2.50;;
61477;SDS011;47345;52.334;10.392;2023-03-24T02:02:31;2.60;;;2.40;;
61477;SDS011;47345;52.334;10.392;2023-03-24T02:05:04;2.90;;;2.50;;
61477;SDS011;47345;52.334;10.392;2023-03-24T02:07:38;3.40;;;2.70;;
61477;SDS011;47345;52.334;10.392;2023-03-24T02:10:15;2.70;;;2.50;;
61477;SDS011;47345;52.334;10.392;2023-03-24T02:12:48;3.80;;;2.70;;
61477;SDS011;47345;52.334;10.392;2023-03-24T02:15:18;5.70;;;2.90;;
61477;SDS011;47345;52.334;10.392;2023-03-24T02:18:01;3.40;;;2.70;;
61477;SDS011;47345;52.334;10.392;2023-03-24T02:24:05;3.70;;;2.60;;
61477;SDS011;47345;52.334;10.392;2023-03-24T02:27:15;3.10;;;2.50;;
61477;SDS011;47345;52.334;10.392;2023-03-24T02:30:22;4.50;;;2.90;;
61477;SDS011;47345;52.334;10.392;2023-03-24T02:36:22;4.50;;;3.10;;
61477;SDS011;47345;52.334;10.392;2023-03-24T02:42:09;4.20;;;3.10;;
61477;SDS011;47345;52.334;10.392;2023-03-24T02:44:50;4.60;;;3.00;;
61477;SDS011;47345;52.334;10.392;2023-03-24T02:47:29;4.60;;;3.10;;
61477;SDS011;47345;52.334;10.392;2023-03-24T02:50:11;3.40;;;3.00;;
61477;SDS011;47345;52.334;10.392;2023-03-24T02:52:51;3.80;;;3.20;;
61477;SDS011;47345;52.334;10.392;2023-03-24T02:55:30;3.40;;;2.90;;
61477;SDS011;47345;52.334;10.392;2023-03-24T02:58:05;4.70;;;3.20;;
61477;SDS011;47345;52.334;10.392;2023-03-24T03:00:43;5.10;;;3.60;;
61477;SDS011;47345;52.334;10.392;2023-03-24T03:03:18;3.50;;;3.00;;
61477;SDS011;47345;52.334;10.392;2023-03-24T03:05:53;4.20;;;3.20;;
61477;SDS011;47345;52.334;10.392;2023-03-24T03:08:28;5.10;;;3.30;;
61477;SDS011;47345;52.334;10.392;2023-03-24T03:11:01;4.60;;;3.20;;
61477;SDS011;47345;52.334;10.392;2023-03-24T03:13:35;4.80;;;3.50;;
61477;SDS011;47345;52.334;10.392;2023-03-24T03:16:09;5.70;;;3.40;;
61477;SDS011;47345;52.334;10.392;2023-03-24T03:18:44;4.30;;;3.30;;
61477;SDS011;47345;52.334;10.392;2023-03-24T03:21:18;5.60;;;3.20;;
61477;SDS011;47345;52.334;10.392;2023-03-24T03:23:53;5.20;;;3.50;;
61477;SDS011;47345;52.334;10.392;2023-03-24T03:26:26;4.30;;;3.30;;
61477;SDS011;47345;52.334;10.392;2023-03-24T03:29:00;5.00;;;3.60;;
61477;SDS011;47345;52.334;10.392;2023-03-24T03:31:37;6.70;;;3.60;;
61477;SDS011;47345;52.334;10.392;2023-03-24T03:34:13;5.40;;;3.40;;
61477;SDS011;47345;52.334;10.392;2023-03-24T03:36:52;4.20;;;3.50;;
61477;SDS011;47345;52.334;10.392;2023-03-24T03:39:28;3.30;;;2.90;;
61477;SDS011;47345;52.334;10.392;2023-03-24T03:42:02;4.50;;;3.40;;
61477;SDS011;47345;52.334;10.392;2023-03-24T03:44:34;5.10;;;3.40;;
61477;SDS011;47345;52.334;10.392;2023-03-24T03:47:05;5.40;;;3.50;;
61477;SDS011;47345;52.334;10.392;2023-03-24T03:49:36;4.10;;;3.40;;
61477;SDS011;47345;52.334;10.392;2023-03-24T03:52:07;4.30;;;3.50;;
61477;SDS011;47345;52.334;10.392;2023-03-24T03:54:37;4.90;;;3.50;;
61477;SDS011;47345;52.334;10.392;2023-03-24T03:57:11;4.90;;;3.30;;
61477;SDS011;47345;52.334;10.392;2023-03-24T03:59:43;3.80;;;3.40;;
61477;SDS011;47345;52.334;10.392;2023-03-24T04:02:19;3.80;;;3.10;;
61477;SDS011;47345;52.334;10.392;2023-03-24T04:05:03;5.20;;;3.50;;
61477;SDS011;47345;52.334;10.392;2023-03-24T04:07:59;3.50;;;3.10;;
61477;SDS011;47345;52.334;10.392;2023-03-24T04:14:00;3.70;;;3.10;;
61477;SDS011;47345;52.334;10.392;2023-03-24T04:16:43;6.30;;;3.50;;
61477;SDS011;47345;52.334;10.392;2023-03-24T04:19:30;4.50;;;3.10;;
61477;SDS011;47345;52.334;10.392;2023-03-24T04:22:14;6.10;;;3.70;;
61477;SDS011;47345;52.334;10.392;2023-03-24T04:24:58;4.40;;;3.40;;
61477;SDS011;47345;52.334;10.392;2023-03-24T04:27:37;4.40;;;3.30;;
61477;SDS011;47345;52.334;10.392;2023-03-24T04:30:14;3.70;;;3.20;;
61477;SDS011;47345;52.334;10.392;2023-03-24T04:32:54;5.50;;;3.70;;
61477;SDS011;47345;52.334;10.392;2023-03-24T04:35:29;5.10;;;3.30;;
61477;SDS011;47345;52.334;10.392;2023-03-24T04:38:08;3.70;;;3.00;;
61477;SDS011;47345;52.334;10.392;2023-03-24T04:40:43;4.50;;;3.40;;
61477;SDS011;47345;52.334;10.392;2023-03-24T04:43:16;5.00;;;3.50;;
61477;SDS011;47345;52.334;10.392;2023-03-24T04:45:51;4.60;;;3.20;;
61477;SDS011;47345;52.334;10.392;2023-03-24T04:48:24;4.20;;;3.30;;
61477;SDS011;47345;52.334;10.392;2023-03-24T04:50:55;4.30;;;3.40;;
61477;SDS011;47345;52.334;10.392;2023-03-24T04:53:27;4.70;;;3.60;;
61477;SDS011;47345;52.334;10.392;2023-03-24T04:56:03;6.20;;;4.50;;
61477;SDS011;47345;52.334;10.392;2023-03-24T04:58:54;4.70;;;3.60;;
61477;SDS011;47345;52.334;10.392;2023-03-24T05:01:26;5.90;;;4.20;;
61477;SDS011;47345;52.334;10.392;2023-03-24T05:03:57;5.60;;;3.70;;
61477;SDS011;47345;52.334;10.392;2023-03-24T05:06:28;4.20;;;3.50;;
61477;SDS011;47345;52.334;10.392;2023-03-24T05:08:59;4.00;;;3.30;;
61477;SDS011;47345;52.334;10.392;2023-03-24T05:11:31;7.50;;;3.40;;
61477;SDS011;47345;52.334;10.392;2023-03-24T05:14:01;4.20;;;3.50;;
61477;SDS011;47345;52.334;10.392;2023-03-24T05:16:32;5.20;;;3.60;;
61477;SDS011;47345;52.334;10.392;2023-03-24T05:19:03;4.70;;;3.30;;
61477;SDS011;47345;52.334;10.392;2023-03-24T05:21:33;6.90;;;3.60;;
61477;SDS011;47345;52.334;10.392;2023-03-24T05:24:04;4.40;;;3.30;;
61477;SDS011;47345;52.334;10.392;2023-03-24T05:26:35;4.40;;;3.30;;
61477;SDS011;47345;52.334;10.392;2023-03-24T05:29:06;4.60;;;2.70;;
61477;SDS011;47345;52.334;10.392;2023-03-24T05:31:36;3.90;;;3.20;;
61477;SDS011;47345;52.334;10.392;2023-03-24T05:34:07;4.00;;;2.90;;
61477;SDS011;47345;52.334;10.392;2023-03-24T05:36:38;4.60;;;3.50;;
61477;SDS011;47345;52.334;10.392;2023-03-24T05:39:08;4.20;;;3.50;;
61477;SDS011;47345;52.334;10.392;2023-03-24T05:41:39;3.60;;;3.10;;
61477;SDS011;47345;52.334;10.392;2023-03-24T05:44:09;5.00;;;3.60;;
61477;SDS011;47345;52.334;10.392;2023-03-24T05:46:40;6.70;;;3.90;;
61477;SDS011;47345;52.334;10.392;2023-03-24T05:49:11;4.90;;;3.90;;
61477;SDS011;47345;52.334;10.392;2023-03-24T05:51:41;4.70;;;3.40;;
61477;SDS011;47345;52.334;10.392;2023-03-24T05:54:11;4.00;;;3.20;;
61477;SDS011;47345;52.334;10.392;2023-03-24T05:56:42;4.50;;;3.50;;
61477;SDS011;47345;52.334;10.392;2023-03-24T05:59:12;4.80;;;3.60;;
61477;SDS011;47345;52.334;10.392;2023-03-24T06:01:43;4.90;;;3.60;;
61477;SDS011;47345;52.334;10.392;2023-03-24T06:04:16;6.00;;;3.70;;
61477;SDS011;47345;52.334;10.392;2023-03-24T06:06:49;4.00;;;3.30;;
61477;SDS011;47345;52.334;10.392;2023-03-24T06:09:22;7.50;;;3.70;;
61477;SDS011;47345;52.334;10.392;2023-03-24T06:11:55;4.10;;;3.20;;
61477;SDS011;47345;52.334;10.392;2023-03-24T06:14:26;4.90;;;3.30;;
61477;SDS011;47345;52.334;10.392;2023-03-24T06:16:57;5.00;;;3.20;;
61477;SDS011;47345;52.334;10.392;2023-03-24T06:19:27;5.10;;;3.70;;
61477;SDS011;47345;52.334;10.392;2023-03-24T06:22:00;4.30;;;3.30;;
61477;SDS011;47345;52.334;10.392;2023-03-24T06:24:31;6.10;;;3.80;;
61477;SDS011;47345;52.334;10.392;2023-03-24T06:27:01;4.20;;;3.40;;
61477;SDS011;47345;52.334;10.392;2023-03-24T06:29:35;5.70;;;3.80;;
61477;SDS011;47345;52.334;10.392;2023-03-24T06:32:08;5.40;;;3.50;;
61477;SDS011;47345;52.334;10.392;2023-03-24T06:34:39;5.30;;;3.70;;
61477;SDS011;47345;52.334;10.392;2023-03-24T06:37:10;4.50;;;3.60;;
61477;SDS011;47345;52.334;10.392;2023-03-24T06:39:41;5.70;;;3.70;;
61477;SDS011;47345;52.334;10.392;2023-03-24T06:42:11;5.40;;;3.60;;
61477;SDS011;47345;52.334;10.392;2023-03-24T06:44:42;5.90;;;4.20;;
61477;SDS011;47345;52.334;10.392;2023-03-24T06:47:13;5.40;;;3.80;;
61477;SDS011;47345;52.334;10.392;2023-03-24T06:49:44;5.00;;;3.70;;
61477;SDS011;47345;52.334;10.392;2023-03-24T06:52:15;5.60;;;3.70;;
61477;SDS011;47345;52.334;10.392;2023-03-24T06:54:45;7.80;;;4.00;;
61477;SDS011;47345;52.334;10.392;2023-03-24T06:57:16;4.80;;;3.80;;
61477;SDS011;47345;52.334;10.392;2023-03-24T06:59:48;5.10;;;3.70;;
61477;SDS011;47345;52.334;10.392;2023-03-24T07:02:19;6.10;;;3.90;;
61477;SDS011;47345;52.334;10.392;2023-03-24T07:04:50;5.20;;;3.70;;
61477;SDS011;47345;52.334;10.392;2023-03-24T07:07:22;7.40;;;4.00;;
61477;SDS011;47345;52.334;10.392;2023-03-24T07:09:55;8.10;;;4.00;;
61477;SDS011;47345;52.334;10.392;2023-03-24T07:12:25;4.30;;;3.40;;
61477;SDS011;47345;52.334;10.392;2023-03-24T07:14:57;5.10;;;3.70;;
61477;SDS011;47345;52.334;10.392;2023-03-24T07:17:30;5.70;;;3.80;;
61477;SDS011;47345;52.334;10.392;2023-03-24T07:20:01;5.70;;;3.70;;
61477;SDS011;47345;52.334;10.392;2023-03-24T07:22:36;7.20;;;3.40;;
61477;SDS011;47345;52.334;10.392;2023-03-24T07:25:07;4.50;;;3.40;;
61477;SDS011;47345;52.334;10.392;2023-03-24T07:27:41;6.70;;;3.90;;
61477;SDS011;47345;52.334;10.392;2023-03-24T07:30:12;3.70;;;3.10;;
61477;SDS011;47345;52.334;10.392;2023-03-24T07:32:42;4.60;;;3.20;;
61477;SDS011;47345;52.334;10.392;2023-03-24T07:35:12;9.00;;;3.30;;
61477;SDS011;47345;52.334;10.392;2023-03-24T07:37:44;3.10;;;2.70;;
61477;SDS011;47345;52.334;10.392;2023-03-24T07:40:14;2.30;;;2.10;;
61477;SDS011;47345;52.334;10.392;2023-03-24T07:42:45;2.60;;;2.40;;
61477;SDS011;47345;52.334;10.392;2023-03-24T07:45:15;2.40;;;2.20;;
61477;SDS011;47345;52.334;10.392;2023-03-24T07:47:46;2.80;;;2.50;;
61477;SDS011;47345;52.334;10.392;2023-03-24T07:50:17;2.30;;;2.00;;
61477;SDS011;47345;52.334;10.392;2023-03-24T07:52:48;2.70;;;2.30;;
61477;SDS011;47345;52.334;10.392;2023-03-24T07:55:18;2.70;;;2.20;;
61477;SDS011;47345;52.334;10.392;2023-03-24T07:57:49;5.40;;;2.60;;
61477;SDS011;47345;52.334;10.392;2023-03-24T08:00:20;2.90;;;2.40;;
61477;SDS011;47345;52.334;10.392;2023-03-24T08:02:52;4.00;;;2.40;;
61477;SDS011;47345;52.334;10.392;2023-03-24T08:05:22;2.80;;;2.50;;
61477;SDS011;47345;52.334;10.392;2023-03-24T08:07:56;2.40;;;2.00;;
61477;SDS011;47345;52.334;10.392;2023-03-24T08:10:29;2.30;;;2.10;;
61477;SDS011;47345;52.334;10.392;2023-03-24T08:13:00;2.50;;;2.10;;
61477;SDS011;47345;52.334;10.392;2023-03-24T08:15:31;1.90;;;1.80;;
61477;SDS011;47345;52.334;10.392;2023-03-24T08:18:01;3.00;;;2.50;;
61477;SDS011;47345;52.334;10.392;2023-03-24T08:20:33;1.90;;;1.80;;
61477;SDS011;47345;52.334;10.392;2023-03-24T08:23:03;2.10;;;1.90;;
61477;SDS011;47345;52.334;10.392;2023-03-24T08:25:34;1.50;;;1.40;;
61477;SDS011;47345;52.334;10.392;2023-03-24T08:28:05;4.60;;;2.90;;
61477;SDS011;47345;52.334;10.392;2023-03-24T08:30:36;1.90;;;1.70;;
61477;SDS011;47345;52.334;10.392;2023-03-24T08:33:10;3.90;;;1.60;;
61477;SDS011;47345;52.334;10.392;2023-03-24T08:35:42;1.70;;;1.60;;
61477;SDS011;47345;52.334;10.392;2023-03-24T08:38:14;2.00;;;1.40;;
61477;SDS011;47345;52.334;10.392;2023-03-24T08:40:45;1.30;;;1.30;;
61477;SDS011;47345;52.334;10.392;2023-03-24T08:43:16;1.00;;;1.00;;
61477;SDS011;47345;52.334;10.392;2023-03-24T08:45:50;1.50;;;1.40;;
61477;SDS011;47345;52.334;10.392;2023-03-24T08:48:20;1.40;;;1.30;;
61477;SDS011;47345;52.334;10.392;2023-03-24T08:50:50;1.40;;;1.20;;
61477;SDS011;47345;52.334;10.392;2023-03-24T08:53:21;5.70;;;2.80;;
61477;SDS011;47345;52.334;10.392;2023-03-24T08:55:52;1.80;;;1.20;;
61477;SDS011;47345;52.334;10.392;2023-03-24T08:58:23;1.20;;;1.10;;
61477;SDS011;47345;52.334;10.392;2023-03-24T09:00:54;2.30;;;1.10;;
61477;SDS011;47345;52.334;10.392;2023-03-24T09:03:24;1.30;;;1.10;;
61477;SDS011;47345;52.334;10.392;2023-03-24T09:05:55;1.40;;;1.30;;
61477;SDS011;47345;52.334;10.392;2023-03-24T09:08:26;3.40;;;1.50;;
61477;SDS011;47345;52.334;10.392;2023-03-24T09:10:58;1.20;;;1.10;;
61477;SDS011;47345;52.334;10.392;2023-03-24T09:13:28;1.50;;;1.30;;
61477;SDS011;47345;52.334;10.392;2023-03-24T09:15:59;1.30;;;1.20;;
61477;SDS011;47345;52.334;10.392;2023-03-24T09:18:31;1.50;;;1.30;;
61477;SDS011;47345;52.334;10.392;2023-03-24T09:21:02;0.90;;;0.90;;
61477;SDS011;47345;52.334;10.392;2023-03-24T09:23:33;3.50;;;1.10;;
61477;SDS011;47345;52.334;10.392;2023-03-24T09:26:04;1.00;;;1.00;;
61477;SDS011;47345;52.334;10.392;2023-03-24T09:28:34;1.50;;;1.40;;
61477;SDS011;47345;52.334;10.392;2023-03-24T09:31:05;1.00;;;0.90;;
61477;SDS011;47345;52.334;10.392;2023-03-24T09:33:35;2.10;;;1.10;;
61477;SDS011;47345;52.334;10.392;2023-03-24T09:36:07;0.90;;;0.90;;
61477;SDS011;47345;52.334;10.392;2023-03-24T09:38:38;2.30;;;1.30;;
61477;SDS011;47345;52.334;10.392;2023-03-24T09:41:13;4.90;;;1.50;;
61477;SDS011;47345;52.334;10.392;2023-03-24T09:43:46;1.20;;;1.10;;
61477;SDS011;47345;52.334;10.392;2023-03-24T09:46:25;1.20;;;1.10;;
61477;SDS011;47345;52.334;10.392;2023-03-24T09:49:00;1.40;;;1.10;;
61477;SDS011;47345;52.334;10.392;2023-03-24T09:51:32;1.10;;;1.00;;
61477;SDS011;47345;52.334;10.392;2023-03-24T09:54:08;1.10;;;1.10;;
61477;SDS011;47345;52.334;10.392;2023-03-24T09:56:45;4.60;;;1.20;;
61477;SDS011;47345;52.334;10.392;2023-03-24T09:59:19;1.30;;;1.00;;
61477;SDS011;47345;52.334;10.392;2023-03-24T10:01:57;5.10;;;1.50;;
61477;SDS011;47345;52.334;10.392;2023-03-24T10:04:28;1.60;;;1.00;;
61477;SDS011;47345;52.334;10.392;2023-03-24T10:07:00;2.40;;;1.30;;
61477;SDS011;47345;52.334;10.392;2023-03-24T10:09:36;1.70;;;1.30;;
61477;SDS011;47345;52.334;10.392;2023-03-24T10:12:13;8.40;;;5.00;;
61477;SDS011;47345;52.334;10.392;2023-03-24T10:14:53;1.70;;;1.30;;
61477;SDS011;47345;52.334;10.392;2023-03-24T10:17:34;2.40;;;1.70;;
61477;SDS011;47345;52.334;10.392;2023-03-24T10:20:13;1.60;;;1.30;;
61477;SDS011;47345;52.334;10.392;2023-03-24T10:22:55;2.30;;;1.40;;
61477;SDS011;47345;52.334;10.392;2023-03-24T10:25:37;2.40;;;1.30;;
61477;SDS011;47345;52.334;10.392;2023-03-24T10:28:17;1.70;;;1.40;;
61477;SDS011;47345;52.334;10.392;2023-03-24T10:30:51;2.20;;;1.30;;
61477;SDS011;47345;52.334;10.392;2023-03-24T10:33:27;3.10;;;1.40;;
61477;SDS011;47345;52.334;10.392;2023-03-24T10:36:00;3.00;;;1.60;;
61477;SDS011;47345;52.334;10.392;2023-03-24T10:38:34;2.70;;;1.20;;
61477;SDS011;47345;52.334;10.392;2023-03-24T10:41:06;4.60;;;1.90;;
61477;SDS011;47345;52.334;10.392;2023-03-24T10:43:41;4.00;;;1.60;;
61477;SDS011;47345;52.334;10.392;2023-03-24T10:46:13;2.50;;;1.60;;
61477;SDS011;47345;52.334;10.392;2023-03-24T10:48:47;2.80;;;2.00;;
61477;SDS011;47345;52.334;10.392;2023-03-24T10:51:20;1.90;;;1.60;;
61477;SDS011;47345;52.334;10.392;2023-03-24T10:54:08;4.30;;;1.90;;
61477;SDS011;47345;52.334;10.392;2023-03-24T10:56:42;5.70;;;2.10;;
61477;SDS011;47345;52.334;10.392;2023-03-24T10:59:18;8.50;;;5.30;;
61477;SDS011;47345;52.334;10.392;2023-03-24T11:01:56;3.00;;;2.20;;
61477;SDS011;47345;52.334;10.392;2023-03-24T11:04:28;2.90;;;1.90;;
61477;SDS011;47345;52.334;10.392;2023-03-24T11:07:02;2.20;;;1.80;;
61477;SDS011;47345;52.334;10.392;2023-03-24T11:09:41;3.10;;;1.80;;
61477;SDS011;47345;52.334;10.392;2023-03-24T11:12:24;1.80;;;1.50;;
61477;SDS011;47345;52.334;10.392;2023-03-24T11:15:02;2.70;;;2.00;;
61477;SDS011;47345;52.334;10.392;2023-03-24T11:17:51;6.40;;;2.10;;
61477;SDS011;47345;52.334;10.392;2023-03-24T11:20:29;3.60;;;1.60;;
61477;SDS011;47345;52.334;10.392;2023-03-24T11:25:32;2.80;;;1.90;;
61477;SDS011;47345;52.334;10.392;2023-03-24T11:28:06;6.20;;;2.20;;
61477;SDS011;47345;52.334;10.392;2023-03-24T11:30:45;1.90;;;1.60;;
61477;SDS011;47345;52.334;10.392;2023-03-24T11:33:19;9.80;;;2.00;;
61477;SDS011;47345;52.334;10.392;2023-03-24T11:36:05;2.90;;;1.60;;
61477;SDS011;47345;52.334;10.392;2023-03-24T11:39:02;4.60;;;2.10;;
61477;SDS011;47345;52.334;10.392;2023-03-24T11:41:39;4.30;;;1.70;;
61477;SDS011;47345;52.334;10.392;2023-03-24T11:44:17;4.70;;;1.60;;
61477;SDS011;47345;52.334;10.392;2023-03-24T11:46:51;2.90;;;1.70;;
61477;SDS011;47345;52.334;10.392;2023-03-24T11:49:25;3.50;;;1.70;;
61477;SDS011;47345;52.334;10.392;2023-03-24T11:51:59;3.50;;;1.80;;
61477;SDS011;47345;52.334;10.392;2023-03-24T11:54:32;3.70;;;1.60;;
61477;SDS011;47345;52.334;10.392;2023-03-24T11:57:06;4.60;;;2.00;;
61477;SDS011;47345;52.334;10.392;2023-03-24T11:59:41;4.90;;;2.00;;
61477;SDS011;47345;52.334;10.392;2023-03-24T12:02:21;2.30;;;1.50;;
61477;SDS011;47345;52.334;10.392;2023-03-24T12:05:05;4.00;;;2.10;;
61477;SDS011;47345;52.334;10.392;2023-03-24T12:08:10;5.10;;;1.90;;
61477;SDS011;47345;52.334;10.392;2023-03-24T12:10:54;3.00;;;1.70;;
61477;SDS011;47345;52.334;10.392;2023-03-24T12:13:34;1.70;;;1.30;;
61477;SDS011;47345;52.334;10.392;2023-03-24T12:16:10;2.30;;;1.40;;
61477;SDS011;47345;52.334;10.392;2023-03-24T12:18:57;1.50;;;1.40;;
61477;SDS011;47345;52.334;10.392;2023-03-24T12:21:44;4.20;;;1.40;;
61477;SDS011;47345;52.334;10.392;2023-03-24T12:24:25;1.70;;;1.50;;
61477;SDS011;47345;52.334;10.392;2023-03-24T12:27:07;2.10;;;1.70;;
61477;SDS011;47345;52.334;10.392;2023-03-24T12:29:54;1.70;;;1.60;;
61477;SDS011;47345;52.334;10.392;2023-03-24T12:32:35;2.20;;;1.80;;
61477;SDS011;47345;52.334;10.392;2023-03-24T12:35:26;4.70;;;1.50;;
61477;SDS011;47345;52.334;10.392;2023-03-24T12:38:15;2.00;;;1.60;;
61477;SDS011;47345;52.334;10.392;2023-03-24T12:43:55;2.10;;;1.40;;
61477;SDS011;47345;52.334;10.392;2023-03-24T12:46:47;2.90;;;1.70;;
61477;SDS011;47345;52.334;10.392;2023-03-24T12:49:32;1.60;;;1.50;;
61477;SDS011;47345;52.334;10.392;2023-03-24T12:55:15;1.70;;;1.60;;
61477;SDS011;47345;52.334;10.392;2023-03-24T12:57:53;2.30;;;1.60;;
61477;SDS011;47345;52.334;10.392;2023-03-24T13:00:29;2.60;;;1.60;;
61477;SDS011;47345;52.334;10.392;2023-03-24T13:03:03;2.20;;;1.60;;
61477;SDS011;47345;52.334;10.392;2023-03-24T13:05:40;3.70;;;2.30;;
61477;SDS011;47345;52.334;10.392;2023-03-24T13:08:17;3.90;;;2.10;;
61477;SDS011;47345;52.334;10.392;2023-03-24T13:10:57;5.50;;;1.90;;
61477;SDS011;47345;52.334;10.392;2023-03-24T13:13:35;2.80;;;1.70;;
61477;SDS011;47345;52.334;10.392;2023-03-24T13:16:10;4.80;;;1.80;;
61477;SDS011;47345;52.334;10.392;2023-03-24T13:18:45;3.60;;;2.00;;
61477;SDS011;47345;52.334;10.392;2023-03-24T13:21:19;2.80;;;1.90;;
61477;SDS011;47345;52.334;10.392;2023-03-24T13:23:53;3.80;;;1.90;;
61477;SDS011;47345;52.334;10.392;2023-03-24T13:26:29;3.00;;;1.40;;
61477;SDS011;47345;52.334;10.392;2023-03-24T13:29:09;10.40;;;3.60;;
61477;SDS011;47345;52.334;10.392;2023-03-24T13:31:48;4.00;;;2.50;;
61477;SDS011;47345;52.334;10.392;2023-03-24T13:36:57;5.40;;;2.40;;
61477;SDS011;47345;52.334;10.392;2023-03-24T13:39:30;3.50;;;2.20;;
61477;SDS011;47345;52.334;10.392;2023-03-24T13:42:04;2.80;;;2.30;;
61477;SDS011;47345;52.334;10.392;2023-03-24T13:44:37;6.50;;;2.30;;
61477;SDS011;47345;52.334;10.392;2023-03-24T13:47:12;2.80;;;2.00;;
61477;SDS011;47345;52.334;10.392;2023-03-24T13:49:46;2.80;;;2.30;;
61477;SDS011;47345;52.334;10.392;2023-03-24T13:52:27;7.70;;;2.10;;
61477;SDS011;47345;52.334;10.392;2023-03-24T13:55:07;8.50;;;3.30;;
61477;SDS011;47345;52.334;10.392;2023-03-24T13:57:41;5.00;;;2.70;;
61477;SDS011;47345;52.334;10.392;2023-03-24T14:00:24;3.60;;;2.10;;
61477;SDS011;47345;52.334;10.392;2023-03-24T14:02:55;3.70;;;2.70;;
61477;SDS011;47345;52.334;10.392;2023-03-24T14:05:58;3.10;;;1.80;;
61477;SDS011;47345;52.334;10.392;2023-03-24T14:08:39;3.50;;;2.00;;
61477;SDS011;47345;52.334;10.392;2023-03-24T14:14:19;3.10;;;2.20;;
61477;SDS011;47345;52.334;10.392;2023-03-24T14:16:52;5.80;;;2.50;;
61477;SDS011;47345;52.334;10.392;2023-03-24T14:22:11;4.30;;;1.90;;
61477;SDS011;47345;52.334;10.392;2023-03-24T14:24:43;2.90;;;1.70;;
61477;SDS011;47345;52.334;10.392;2023-03-24T14:27:30;2.60;;;1.60;;
61477;SDS011;47345;52.334;10.392;2023-03-24T14:30:10;2.70;;;1.50;;
61477;SDS011;47345;52.334;10.392;2023-03-24T14:32:47;3.50;;;1.60;;
61477;SDS011;47345;52.334;10.392;2023-03-24T14:35:28;3.70;;;1.70;;
61477;SDS011;47345;52.334;10.392;2023-03-24T14:38:03;2.30;;;1.50;;
61477;SDS011;47345;52.334;10.392;2023-03-24T14:40:55;4.00;;;1.50;;
61477;SDS011;47345;52.334;10.392;2023-03-24T14:43:27;2.40;;;1.60;;
61477;SDS011;47345;52.334;10.392;2023-03-24T14:49:16;2.80;;;1.20;;
61477;SDS011;47345;52.334;10.392;2023-03-24T14:51:53;3.60;;;2.10;;
61477;SDS011;47345;52.334;10.392;2023-03-24T14:54:33;3.40;;;1.40;;
61477;SDS011;47345;52.334;10.392;2023-03-24T14:57:06;3.30;;;1.50;;
61477;SDS011;47345;52.334;10.392;2023-03-24T14:59:44;4.30;;;1.40;;
61477;SDS011;47345;52.334;10.392;2023-03-24T15:02:31;7.10;;;1.80;;
61477;SDS011;47345;52.334;10.392;2023-03-24T15:05:18;2.30;;;1.70;;
61477;SDS011;47345;52.334;10.392;2023-03-24T15:08:00;3.10;;;1.50;;
61477;SDS011;47345;52.334;10.392;2023-03-24T15:10:40;2.10;;;1.50;;
61477;SDS011;47345;52.334;10.392;2023-03-24T15:13:36;4.60;;;1.20;;
61477;SDS011;47345;52.334;10.392;2023-03-24T15:16:15;5.00;;;1.80;;
61477;SDS011;47345;52.334;10.392;2023-03-24T15:18:49;1.40;;;1.30;;
61477;SDS011;47345;52.334;10.392;2023-03-24T15:21:26;2.40;;;1.70;;
61477;SDS011;47345;52.334;10.392;2023-03-24T15:24:00;2.70;;;1.40;;
61477;SDS011;47345;52.334;10.392;2023-03-24T15:26:37;4.00;;;1.90;;
61477;SDS011;47345;52.334;10.392;2023-03-24T15:29:09;3.90;;;1.80;;
61477;SDS011;47345;52.334;10.392;2023-03-24T15:31:39;3.90;;;1.40;;
61477;SDS011;47345;52.334;10.392;2023-03-24T15:34:24;2.30;;;1.80;;
61477;SDS011;47345;52.334;10.392;2023-03-24T15:36:56;2.60;;;1.90;;
61477;SDS011;47345;52.334;10.392;2023-03-24T15:39:31;11.50;;;5.90;;
61477;SDS011;47345;52.334;10.392;2023-03-24T15:42:05;4.20;;;2.80;;
61477;SDS011;47345;52.334;10.392;2023-03-24T15:44:37;6.00;;;2.70;;
61477;SDS011;47345;52.334;10.392;2023-03-24T15:47:11;2.80;;;2.20;;
61477;SDS011;47345;52.334;10.392;2023-03-24T15:49:48;4.40;;;2.00;;
61477;SDS011;47345;52.334;10.392;2023-03-24T15:52:24;4.40;;;2.00;;
61477;SDS011;47345;52.334;10.392;2023-03-24T15:54:59;1.40;;;1.30;;